sensor_id;sensor_type;location;lat;lon;timestamp;pressure;altitude;pressure_sealevel;temperature;humidity
15487;BME280;7845;53.698;10.078;2023-05-03T00:00:39;102480.06;;;9.85;100.00
15487;BME280;7845;53.698;10.078;2023-05-03T00:03:05;102481.19;;;9.98;100.00
15487;BME280;7845;53.698;10.078;2023-05-03T00:05:31;102482.16;;;10.01;100.00
15487;BME280;7845;53.698;10.078;2023-05-03T00:07:58;102481.47;;;10.09;100.00
15487;BME280;7845;53.698;10.078;2023-05-03T00:10:30;102479.75;;;10.11;100.00
15487;BME280;7845;53.698;10.078;2023-05-03T00:13:02;102481.31;;;10.02;100.00
15487;BME280;7845;53.698;10.078;2023-05-03T00:15:28;102482.13;;;10.00;100.00
15487;BME280;7845;53.698;10.078;2023-05-03T00:17:53;102483.44;;;9.81;100.00
15487;BME280;7845;53.698;10.078;2023-05-03T00:20:18;102488.03;;;9.91;100.00
15487;BME280;7845;53.698;10.078;2023-05-03T00:22:44;102481.31;;;9.65;100.00
15487;BME280;7845;53.698;10.078;2023-05-03T00:25:10;102491.97;;;9.74;100.00
15487;BME280;7845;53.698;10.078;2023-05-03T00:27:37;102486.97;;;9.83;100.00
15487;BME280;7845;53.698;10.078;2023-05-03T00:30:04;102479.75;;;9.72;100.00
15487;BME280;7845;53.698;10.078;2023-05-03T00:32:30;102487.75;;;9.79;100.00
15487;BME280;7845;53.698;10.078;2023-05-03T00:34:56;102480.06;;;9.85;100.00
15487;BME280;7845;53.698;10.078;2023-05-03T00:37:22;102483.66;;;9.92;100.00
15487;BME280;7845;53.698;10.078;2023-05-03T00:39:49;102481.72;;;9.82;100.00
15487;BME280;7845;53.698;10.078;2023-05-03T00:42:16;102484.34;;;9.82;100.00
15487;BME280;7845;53.698;10.078;2023-05-03T00:44:43;102488.59;;;9.78;100.00
15487;BME280;7845;53.698;10.078;2023-05-03T00:47:08;102488.75;;;9.86;100.00
15487;BME280;7845;53.698;10.078;2023-05-03T00:49:34;102479.19;;;9.85;100.00
15487;BME280;7845;53.698;10.078;2023-05-03T00:52:01;102484.00;;;9.68;100.00
15487;BME280;7845;53.698;10.078;2023-05-03T00:54:28;102490.84;;;9.63;100.00
15487;BME280;7845;53.698;10.078;2023-05-03T00:56:55;102493.44;;;9.63;100.00
15487;BME280;7845;53.698;10.078;2023-05-03T00:59:20;102482.72;;;9.51;100.00
15487;BME280;7845;53.698;10.078;2023-05-03T01:01:50;102487.47;;;9.31;100.00
15487;BME280;7845;53.698;10.078;2023-05-03T01:04:16;102486.09;;;9.47;100.00
15487;BME280;7845;53.698;10.078;2023-05-03T01:09:42;102490.00;;;9.64;100.00
15487;BME280;7845;53.698;10.078;2023-05-03T01:17:27;102491.88;;;9.35;100.00
15487;BME280;7845;53.698;10.078;2023-05-03T01:19:59;102491.78;;;9.31;100.00
15487;BME280;7845;53.698;10.078;2023-05-03T01:25:16;102500.34;;;9.27;100.00
15487;BME280;7845;53.698;10.078;2023-05-03T01:27:42;102513.94;;;9.48;100.00
15487;BME280;7845;53.698;10.078;2023-05-03T01:30:09;102510.69;;;9.22;100.00
15487;BME280;7845;53.698;10.078;2023-05-03T01:32:44;102511.22;;;9.43;100.00
15487;BME280;7845;53.698;10.078;2023-05-03T01:35:11;102511.97;;;9.39;100.00
15487;BME280;7845;53.698;10.078;2023-05-03T01:37:38;102512.88;;;9.40;100.00
15487;BME280;7845;53.698;10.078;2023-05-03T01:40:05;102505.28;;;9.49;100.00
15487;BME280;7845;53.698;10.078;2023-05-03T01:42:36;102506.09;;;9.47;100.00
15487;BME280;7845;53.698;10.078;2023-05-03T01:45:03;102499.78;;;9.38;100.00
15487;BME280;7845;53.698;10.078;2023-05-03T01:47:29;102504.91;;;9.34;100.00
15487;BME280;7845;53.698;10.078;2023-05-03T01:49:54;102505.66;;;9.30;100.00
15487;BME280;7845;53.698;10.078;2023-05-03T01:52:22;102510.44;;;9.48;100.00
15487;BME280;7845;53.698;10.078;2023-05-03T01:54:48;102515.03;;;9.58;100.00
15487;BME280;7845;53.698;10.078;2023-05-03T01:57:14;102512.75;;;9.71;100.00
15487;BME280;7845;53.698;10.078;2023-05-03T01:59:40;102519.53;;;9.63;100.00
15487;BME280;7845;53.698;10.078;2023-05-03T02:02:07;102512.44;;;9.59;100.00
15487;BME280;7845;53.698;10.078;2023-05-03T02:04:32;102513.09;;;9.49;100.00
15487;BME280;7845;53.698;10.078;2023-05-03T02:06:57;102509.59;;;9.49;100.00
15487;BME280;7845;53.698;10.078;2023-05-03T02:09:24;102513.09;;;9.49;100.00
15487;BME280;7845;53.698;10.078;2023-05-03T02:11:49;102514.66;;;9.42;100.00
15487;BME280;7845;53.698;10.078;2023-05-03T02:14:15;102513.09;;;9.49;100.00
15487;BME280;7845;53.698;10.078;2023-05-03T02:16:40;102511.25;;;9.45;100.00
15487;BME280;7845;53.698;10.078;2023-05-03T02:19:06;102519.28;;;9.53;100.00
15487;BME280;7845;53.698;10.078;2023-05-03T02:21:33;102522.38;;;9.74;100.00
15487;BME280;7845;53.698;10.078;2023-05-03T02:23:58;102527.50;;;9.71;100.00
15487;BME280;7845;53.698;10.078;2023-05-03T02:26:24;102526.06;;;9.83;100.00
15487;BME280;7845;53.698;10.078;2023-05-03T02:28:49;102530.75;;;9.96;100.00
15487;BME280;7845;53.698;10.078;2023-05-03T02:31:14;102528.44;;;10.10;100.00
15487;BME280;7845;53.698;10.078;2023-05-03T02:33:40;102530.97;;;10.07;100.00
15487;BME280;7845;53.698;10.078;2023-05-03T02:36:06;102534.25;;;9.97;100.00
15487;BME280;7845;53.698;10.078;2023-05-03T02:38:32;102543.81;;;9.98;100.00
15487;BME280;7845;53.698;10.078;2023-05-03T02:40:57;102534.91;;;10.24;100.00
15487;BME280;7845;53.698;10.078;2023-05-03T02:43:24;102540.75;;;10.16;100.00
15487;BME280;7845;53.698;10.078;2023-05-03T02:45:51;102541.97;;;10.30;100.00
15487;BME280;7845;53.698;10.078;2023-05-03T02:48:16;102536.22;;;10.46;100.00
15487;BME280;7845;53.698;10.078;2023-05-03T02:50:43;102549.06;;;10.37;100.00
15487;BME280;7845;53.698;10.078;2023-05-03T02:53:09;102545.63;;;10.39;100.00
15487;BME280;7845;53.698;10.078;2023-05-03T02:55:35;102536.84;;;10.34;100.00
15487;BME280;7845;53.698;10.078;2023-05-03T02:58:00;102539.75;;;10.48;100.00
15487;BME280;7845;53.698;10.078;2023-05-03T03:00:26;102537.16;;;10.49;100.00
15487;BME280;7845;53.698;10.078;2023-05-03T03:02:53;102539.00;;;10.53;100.00
15487;BME280;7845;53.698;10.078;2023-05-03T03:05:19;102540.03;;;10.62;100.00
15487;BME280;7845;53.698;10.078;2023-05-03T03:07:44;102536.66;;;10.66;100.00
15487;BME280;7845;53.698;10.078;2023-05-03T03:10:11;102535.66;;;10.61;100.00
15487;BME280;7845;53.698;10.078;2023-05-03T03:12:37;102530.53;;;10.67;100.00
15487;BME280;7845;53.698;10.078;2023-05-03T03:15:05;102538.31;;;10.62;100.00
15487;BME280;7845;53.698;10.078;2023-05-03T03:17:31;102540.00;;;10.60;100.00
15487;BME280;7845;53.698;10.078;2023-05-03T03:19:56;102542.63;;;10.62;100.00
15487;BME280;7845;53.698;10.078;2023-05-03T03:22:23;102538.94;;;10.52;100.00
15487;BME280;7845;53.698;10.078;2023-05-03T03:24:50;102536.34;;;10.52;100.00
15487;BME280;7845;53.698;10.078;2023-05-03T03:27:16;102540.53;;;10.45;100.00
15487;BME280;7845;53.698;10.078;2023-05-03T03:29:41;102547.94;;;10.65;100.00
15487;BME280;7845;53.698;10.078;2023-05-03T03:32:06;102541.88;;;10.67;100.00
15487;BME280;7845;53.698;10.078;2023-05-03T03:34:32;102543.53;;;10.62;100.00
15487;BME280;7845;53.698;10.078;2023-05-03T03:36:58;102540.19;;;10.69;100.00
15487;BME280;7845;53.698;10.078;2023-05-03T03:39:24;102532.63;;;10.84;100.00
15487;BME280;7845;53.698;10.078;2023-05-03T03:41:49;102550.69;;;10.72;100.00
15487;BME280;7845;53.698;10.078;2023-05-03T03:44:14;102547.53;;;10.87;100.00
15487;BME280;7845;53.698;10.078;2023-05-03T03:46:41;102539.69;;;10.87;100.00
15487;BME280;7845;53.698;10.078;2023-05-03T03:49:07;102543.19;;;10.89;100.00
15487;BME280;7845;53.698;10.078;2023-05-03T03:51:32;102537.19;;;10.94;100.00
15487;BME280;7845;53.698;10.078;2023-05-03T03:53:58;102533.75;;;10.97;100.00
15487;BME280;7845;53.698;10.078;2023-05-03T03:56:24;102538.03;;;10.93;100.00
15487;BME280;7845;53.698;10.078;2023-05-03T03:58:49;102539.75;;;10.91;100.00
15487;BME280;7845;53.698;10.078;2023-05-03T04:01:17;102535.59;;;11.01;100.00
15487;BME280;7845;53.698;10.078;2023-05-03T04:03:46;102533.88;;;11.03;100.00
15487;BME280;7845;53.698;10.078;2023-05-03T04:06:11;102537.56;;;11.14;100.00
15487;BME280;7845;53.698;10.078;2023-05-03T04:08:37;102532.59;;;11.29;100.00
15487;BME280;7845;53.698;10.078;2023-05-03T04:11:02;102539.53;;;11.26;100.00
15487;BME280;7845;53.698;10.078;2023-05-03T04:13:29;102535.44;;;10.93;100.00
15487;BME280;7845;53.698;10.078;2023-05-03T04:15:55;102535.81;;;11.13;100.00
15487;BME280;7845;53.698;10.078;2023-05-03T04:18:21;102540.44;;;11.29;100.00
15487;BME280;7845;53.698;10.078;2023-05-03T04:20:48;102534.38;;;11.30;100.00
15487;BME280;7845;53.698;10.078;2023-05-03T04:23:13;102537.28;;;11.47;100.00
15487;BME280;7845;53.698;10.078;2023-05-03T04:25:39;102539.09;;;11.49;100.00
15487;BME280;7845;53.698;10.078;2023-05-03T04:28:12;102538.97;;;11.43;100.00
15487;BME280;7845;53.698;10.078;2023-05-03T04:30:38;102543.53;;;11.55;100.00
15487;BME280;7845;53.698;10.078;2023-05-03T04:33:04;102548.66;;;11.49;100.00
15487;BME280;7845;53.698;10.078;2023-05-03T04:35:30;102545.06;;;11.42;100.00
15487;BME280;7845;53.698;10.078;2023-05-03T04:37:55;102550.66;;;11.63;100.00
15487;BME280;7845;53.698;10.078;2023-05-03T04:40:21;102548.41;;;11.85;100.00
15487;BME280;7845;53.698;10.078;2023-05-03T04:42:47;102555.44;;;11.89;100.00
15487;BME280;7845;53.698;10.078;2023-05-03T04:45:13;102549.53;;;12.02;100.00
15487;BME280;7845;53.698;10.078;2023-05-03T04:47:39;102549.75;;;12.15;100.00
15487;BME280;7845;53.698;10.078;2023-05-03T04:50:05;102561.28;;;12.31;100.00
15487;BME280;7845;53.698;10.078;2023-05-03T04:52:33;102560.22;;;12.18;100.00
15487;BME280;7845;53.698;10.078;2023-05-03T04:54:58;102562.56;;;11.97;100.00
15487;BME280;7845;53.698;10.078;2023-05-03T04:57:24;102565.88;;;11.87;100.00
15487;BME280;7845;53.698;10.078;2023-05-03T04:59:50;102568.25;;;12.29;100.00
15487;BME280;7845;53.698;10.078;2023-05-03T05:02:18;102554.41;;;12.36;100.00
15487;BME280;7845;53.698;10.078;2023-05-03T05:04:44;102560.31;;;12.25;100.00
15487;BME280;7845;53.698;10.078;2023-05-03T05:07:11;102565.22;;;12.63;100.00
15487;BME280;7845;53.698;10.078;2023-05-03T05:09:36;102564.47;;;12.72;100.00
15487;BME280;7845;53.698;10.078;2023-05-03T05:12:03;102561.94;;;12.78;100.00
15487;BME280;7845;53.698;10.078;2023-05-03T05:14:30;102557.72;;;12.92;100.00
15487;BME280;7845;53.698;10.078;2023-05-03T05:16:57;102556.97;;;13.05;100.00
15487;BME280;7845;53.698;10.078;2023-05-03T05:19:23;102555.38;;;13.13;100.00
15487;BME280;7845;53.698;10.078;2023-05-03T05:21:48;102561.44;;;13.09;100.00
15487;BME280;7845;53.698;10.078;2023-05-03T05:24:13;102557.88;;;13.07;100.00
15487;BME280;7845;53.698;10.078;2023-05-03T05:26:40;102556.88;;;12.96;100.00
15487;BME280;7845;53.698;10.078;2023-05-03T05:29:06;102556.66;;;13.58;100.00
15487;BME280;7845;53.698;10.078;2023-05-03T05:31:31;102551.25;;;14.65;98.64
15487;BME280;7845;53.698;10.078;2023-05-03T05:33:57;102531.25;;;15.98;91.50
15487;BME280;7845;53.698;10.078;2023-05-03T05:36:22;102502.94;;;17.89;80.88
15487;BME280;7845;53.698;10.078;2023-05-03T05:38:49;102481.47;;;18.85;74.12
15487;BME280;7845;53.698;10.078;2023-05-03T05:41:14;102482.19;;;18.29;69.68
15487;BME280;7845;53.698;10.078;2023-05-03T05:43:39;102499.59;;;17.67;72.38
15487;BME280;7845;53.698;10.078;2023-05-03T05:46:05;102514.88;;;17.29;74.23
15487;BME280;7845;53.698;10.078;2023-05-03T05:48:30;102521.78;;;17.43;74.61
15487;BME280;7845;53.698;10.078;2023-05-03T05:50:57;102509.41;;;17.48;72.47
15487;BME280;7845;53.698;10.078;2023-05-03T05:53:25;102516.13;;;16.67;73.07
15487;BME280;7845;53.698;10.078;2023-05-03T05:55:50;102524.22;;;16.10;73.34
15487;BME280;7845;53.698;10.078;2023-05-03T05:58:16;102534.72;;;15.07;75.64
15487;BME280;7845;53.698;10.078;2023-05-03T06:00:41;102544.31;;;14.80;78.39
15487;BME280;7845;53.698;10.078;2023-05-03T06:03:07;102547.69;;;14.52;81.42
15487;BME280;7845;53.698;10.078;2023-05-03T06:05:32;102550.13;;;14.25;81.14
15487;BME280;7845;53.698;10.078;2023-05-03T06:07:57;102558.72;;;13.97;81.77
15487;BME280;7845;53.698;10.078;2023-05-03T06:10:24;102554.22;;;13.83;81.05
15487;BME280;7845;53.698;10.078;2023-05-03T06:12:50;102557.53;;;13.55;84.72
15487;BME280;7845;53.698;10.078;2023-05-03T06:15:16;102563.03;;;13.89;84.41
15487;BME280;7845;53.698;10.078;2023-05-03T06:17:41;102550.59;;;13.66;82.24
15487;BME280;7845;53.698;10.078;2023-05-03T06:20:08;102534.91;;;13.72;79.54
15487;BME280;7845;53.698;10.078;2023-05-03T06:22:36;102551.97;;;13.26;80.58
15487;BME280;7845;53.698;10.078;2023-05-03T06:25:01;102549.47;;;13.39;78.33
15487;BME280;7845;53.698;10.078;2023-05-03T06:27:28;102559.19;;;13.47;78.91
15487;BME280;7845;53.698;10.078;2023-05-03T06:29:54;102556.56;;;13.47;79.17
15487;BME280;7845;53.698;10.078;2023-05-03T06:32:19;102554.13;;;13.68;78.19
15487;BME280;7845;53.698;10.078;2023-05-03T06:34:47;102552.38;;;13.69;78.29
15487;BME280;7845;53.698;10.078;2023-05-03T06:37:12;102567.06;;;13.50;78.94
15487;BME280;7845;53.698;10.078;2023-05-03T06:39:38;102559.38;;;13.67;78.48
15487;BME280;7845;53.698;10.078;2023-05-03T06:42:03;102551.38;;;13.55;76.75
15487;BME280;7845;53.698;10.078;2023-05-03T06:44:28;102553.78;;;13.30;76.98
15487;BME280;7845;53.698;10.078;2023-05-03T06:46:54;102541.81;;;13.58;74.83
15487;BME280;7845;53.698;10.078;2023-05-03T06:49:19;102542.13;;;14.01;75.16
15487;BME280;7845;53.698;10.078;2023-05-03T06:51:47;102540.50;;;14.21;73.78
15487;BME280;7845;53.698;10.078;2023-05-03T06:54:13;102534.47;;;14.37;72.07
15487;BME280;7845;53.698;10.078;2023-05-03T06:56:41;102524.78;;;14.31;69.36
15487;BME280;7845;53.698;10.078;2023-05-03T06:59:07;102529.31;;;14.61;70.03
15487;BME280;7845;53.698;10.078;2023-05-03T07:01:33;102525.97;;;15.09;68.83
15487;BME280;7845;53.698;10.078;2023-05-03T07:03:59;102544.31;;;14.80;71.00
15487;BME280;7845;53.698;10.078;2023-05-03T07:06:25;102536.41;;;14.85;70.44
15487;BME280;7845;53.698;10.078;2023-05-03T07:08:50;102531.91;;;14.49;68.74
15487;BME280;7845;53.698;10.078;2023-05-03T07:11:27;102538.84;;;14.39;69.23
15487;BME280;7845;53.698;10.078;2023-05-03T07:13:54;102551.75;;;14.05;70.72
15487;BME280;7845;53.698;10.078;2023-05-03T07:16:20;102542.16;;;14.08;70.12
15487;BME280;7845;53.698;10.078;2023-05-03T07:18:46;102551.78;;;14.03;70.85
15487;BME280;7845;53.698;10.078;2023-05-03T07:21:12;102539.97;;;14.93;68.41
15487;BME280;7845;53.698;10.078;2023-05-03T07:23:39;102534.75;;;15.44;67.89
15487;BME280;7845;53.698;10.078;2023-05-03T07:26:06;102537.38;;;15.13;67.02
15487;BME280;7845;53.698;10.078;2023-05-03T07:28:32;102538.25;;;15.33;67.65
15487;BME280;7845;53.698;10.078;2023-05-03T07:30:58;102535.69;;;15.54;67.44
15487;BME280;7845;53.698;10.078;2023-05-03T07:33:24;102524.22;;;16.08;66.02
15487;BME280;7845;53.698;10.078;2023-05-03T07:35:51;102523.38;;;15.85;64.23
15487;BME280;7845;53.698;10.078;2023-05-03T07:38:19;102515.38;;;16.29;62.64
15487;BME280;7845;53.698;10.078;2023-05-03T07:40:45;102514.53;;;16.18;62.64
15487;BME280;7845;53.698;10.078;2023-05-03T07:43:10;102515.41;;;16.24;62.15
15487;BME280;7845;53.698;10.078;2023-05-03T07:45:36;102525.06;;;16.16;62.62
15487;BME280;7845;53.698;10.078;2023-05-03T07:48:03;102533.88;;;15.95;64.30
15487;BME280;7845;53.698;10.078;2023-05-03T07:50:30;102535.66;;;15.84;65.00
15487;BME280;7845;53.698;10.078;2023-05-03T07:52:57;102526.00;;;15.95;62.92
15487;BME280;7845;53.698;10.078;2023-05-03T07:55:23;102529.47;;;16.19;63.83
15487;BME280;7845;53.698;10.078;2023-05-03T07:57:49;102523.31;;;16.11;62.83
15487;BME280;7845;53.698;10.078;2023-05-03T08:00:16;102540.97;;;15.62;64.65
15487;BME280;7845;53.698;10.078;2023-05-03T08:02:42;102541.81;;;15.65;64.96
15487;BME280;7845;53.698;10.078;2023-05-03T08:05:08;102534.75;;;16.19;63.83
15487;BME280;7845;53.698;10.078;2023-05-03T08:07:34;102527.59;;;16.51;63.36
15487;BME280;7845;53.698;10.078;2023-05-03T08:09:59;102517.81;;;16.76;62.05
15487;BME280;7845;53.698;10.078;2023-05-03T08:12:26;102520.56;;;16.51;60.27
15487;BME280;7845;53.698;10.078;2023-05-03T08:14:52;102532.81;;;16.68;64.01
15487;BME280;7845;53.698;10.078;2023-05-03T08:17:19;102524.81;;;16.87;61.50
15487;BME280;7845;53.698;10.078;2023-05-03T08:19:45;102520.47;;;16.80;60.42
15487;BME280;7845;53.698;10.078;2023-05-03T08:22:11;102523.94;;;16.82;59.40
15487;BME280;7845;53.698;10.078;2023-05-03T08:24:39;102514.44;;;16.45;60.13
15487;BME280;7845;53.698;10.078;2023-05-03T08:27:08;102532.88;;;16.46;60.19
15487;BME280;7845;53.698;10.078;2023-05-03T08:29:35;102531.09;;;16.59;60.93
15487;BME280;7845;53.698;10.078;2023-05-03T08:32:04;102540.88;;;16.10;62.03
15487;BME280;7845;53.698;10.078;2023-05-03T08:34:32;102539.16;;;15.92;61.13
15487;BME280;7845;53.698;10.078;2023-05-03T08:36:57;102540.00;;;16.20;60.40
15487;BME280;7845;53.698;10.078;2023-05-03T08:39:23;102549.72;;;15.76;61.29
15487;BME280;7845;53.698;10.078;2023-05-03T08:41:52;102547.09;;;15.85;60.42
15487;BME280;7845;53.698;10.078;2023-05-03T08:44:21;102534.81;;;15.88;59.67
15487;BME280;7845;53.698;10.078;2023-05-03T08:46:48;102539.16;;;15.89;59.75
15487;BME280;7845;53.698;10.078;2023-05-03T08:49:15;102527.75;;;16.05;59.82
15487;BME280;7845;53.698;10.078;2023-05-03T08:51:43;102567.19;;;15.24;63.54
15487;BME280;7845;53.698;10.078;2023-05-03T08:54:13;102535.59;;;16.22;61.85
15487;BME280;7845;53.698;10.078;2023-05-03T08:56:40;102528.59;;;16.12;60.42
15487;BME280;7845;53.698;10.078;2023-05-03T08:59:06;102522.88;;;17.12;59.46
15487;BME280;7845;53.698;10.078;2023-05-03T09:01:34;102513.03;;;17.37;55.79
15487;BME280;7845;53.698;10.078;2023-05-03T09:04:00;102521.25;;;16.94;56.93
15487;BME280;7845;53.698;10.078;2023-05-03T09:06:27;102529.63;;;17.57;58.12
15487;BME280;7845;53.698;10.078;2023-05-03T09:08:54;102521.63;;;17.67;55.61
15487;BME280;7845;53.698;10.078;2023-05-03T09:13:47;102533.97;;;17.62;56.32
15487;BME280;7845;53.698;10.078;2023-05-03T09:16:27;102519.59;;;17.92;54.67
15487;BME280;7845;53.698;10.078;2023-05-03T09:19:04;102545.09;;;16.78;56.14
15487;BME280;7845;53.698;10.078;2023-05-03T09:21:37;102539.38;;;17.44;57.59
15487;BME280;7845;53.698;10.078;2023-05-03T09:24:12;102534.75;;;17.77;56.20
15487;BME280;7845;53.698;10.078;2023-05-03T09:26:40;102547.53;;;17.14;56.77
15487;BME280;7845;53.698;10.078;2023-05-03T09:29:08;102539.94;;;17.86;56.75
15487;BME280;7845;53.698;10.078;2023-05-03T09:31:35;102558.41;;;16.25;56.76
15487;BME280;7845;53.698;10.078;2023-05-03T09:34:20;102551.00;;;17.14;57.79
15487;BME280;7845;53.698;10.078;2023-05-03T09:36:46;102541.75;;;17.79;55.86
15487;BME280;7845;53.698;10.078;2023-05-03T09:39:17;102530.78;;;18.18;53.82
15487;BME280;7845;53.698;10.078;2023-05-03T09:41:42;102541.25;;;18.31;54.21
15487;BME280;7845;53.698;10.078;2023-05-03T09:44:08;102526.19;;;18.34;51.62
15487;BME280;7845;53.698;10.078;2023-05-03T09:46:33;102521.59;;;18.54;51.27
15487;BME280;7845;53.698;10.078;2023-05-03T09:48:59;102526.69;;;18.68;51.98
15487;BME280;7845;53.698;10.078;2023-05-03T09:51:25;102507.84;;;18.91;49.72
15487;BME280;7845;53.698;10.078;2023-05-03T09:53:55;102512.75;;;18.57;48.89
15487;BME280;7845;53.698;10.078;2023-05-03T09:56:20;102514.84;;;18.96;50.44
15487;BME280;7845;53.698;10.078;2023-05-03T09:58:51;102520.69;;;18.55;51.27
15487;BME280;7845;53.698;10.078;2023-05-03T10:01:17;102520.34;;;18.81;50.76
15487;BME280;7845;53.698;10.078;2023-05-03T10:03:49;102539.00;;;17.90;54.25
15487;BME280;7845;53.698;10.078;2023-05-03T10:06:23;102537.34;;;18.63;55.06
15487;BME280;7845;53.698;10.078;2023-05-03T10:11:36;102535.19;;;18.91;51.93
15487;BME280;7845;53.698;10.078;2023-05-03T10:14:05;102547.34;;;19.04;54.79
15487;BME280;7845;53.698;10.078;2023-05-03T10:16:36;102535.28;;;18.85;55.55
15487;BME280;7845;53.698;10.078;2023-05-03T10:19:08;102518.38;;;19.53;52.77
15487;BME280;7845;53.698;10.078;2023-05-03T10:22:05;102516.91;;;19.34;51.29
15487;BME280;7845;53.698;10.078;2023-05-03T10:24:32;102506.69;;;19.10;49.15
15487;BME280;7845;53.698;10.078;2023-05-03T10:26:59;102503.94;;;19.17;48.05
15487;BME280;7845;53.698;10.078;2023-05-03T10:32:30;102509.63;;;18.89;50.81
15487;BME280;7845;53.698;10.078;2023-05-03T10:35:02;102505.19;;;19.50;49.35
15487;BME280;7845;53.698;10.078;2023-05-03T10:37:28;102497.34;;;19.93;49.17
15487;BME280;7845;53.698;10.078;2023-05-03T10:39:54;102486.66;;;19.98;47.27
15487;BME280;7845;53.698;10.078;2023-05-03T10:42:23;102473.38;;;18.95;44.51
15487;BME280;7845;53.698;10.078;2023-05-03T10:44:53;102501.19;;;19.22;47.57
15487;BME280;7845;53.698;10.078;2023-05-03T10:47:21;102485.41;;;20.15;48.42
15487;BME280;7845;53.698;10.078;2023-05-03T10:55:14;102485.78;;;19.97;46.72
15487;BME280;7845;53.698;10.078;2023-05-03T10:57:41;102493.81;;;19.93;47.52
15487;BME280;7845;53.698;10.078;2023-05-03T11:00:36;102486.72;;;19.93;46.77
15487;BME280;7845;53.698;10.078;2023-05-03T11:03:29;102474.13;;;20.06;45.50
15487;BME280;7845;53.698;10.078;2023-05-03T11:05:58;102493.16;;;19.28;47.52
15487;BME280;7845;53.698;10.078;2023-05-03T11:08:25;102494.75;;;19.40;48.38
15487;BME280;7845;53.698;10.078;2023-05-03T11:10:58;102480.06;;;19.72;46.16
15487;BME280;7845;53.698;10.078;2023-05-03T11:13:24;102493.50;;;20.08;47.68
15487;BME280;7845;53.698;10.078;2023-05-03T11:15:52;102480.66;;;19.88;46.06
15487;BME280;7845;53.698;10.078;2023-05-03T11:18:19;102486.91;;;19.84;46.48
15487;BME280;7845;53.698;10.078;2023-05-03T11:20:45;102501.22;;;20.21;49.02
15487;BME280;7845;53.698;10.078;2023-05-03T11:23:12;102491.13;;;20.81;47.93
15487;BME280;7845;53.698;10.078;2023-05-03T11:25:37;102490.03;;;20.50;46.55
15487;BME280;7845;53.698;10.078;2023-05-03T11:28:03;102486.28;;;20.60;46.87
15487;BME280;7845;53.698;10.078;2023-05-03T11:30:33;102492.19;;;20.31;46.72
15487;BME280;7845;53.698;10.078;2023-05-03T11:33:02;102488.38;;;20.00;47.02
15487;BME280;7845;53.698;10.078;2023-05-03T11:35:29;102481.56;;;20.31;46.84
15487;BME280;7845;53.698;10.078;2023-05-03T11:37:55;102490.50;;;20.27;48.40
15487;BME280;7845;53.698;10.078;2023-05-03T11:40:21;102475.69;;;20.59;46.52
15487;BME280;7845;53.698;10.078;2023-05-03T11:42:53;102484.84;;;20.46;47.49
15487;BME280;7845;53.698;10.078;2023-05-03T11:45:21;102484.84;;;20.00;45.72
15487;BME280;7845;53.698;10.078;2023-05-03T11:47:47;102491.03;;;20.00;47.60
15487;BME280;7845;53.698;10.078;2023-05-03T11:50:16;102484.47;;;19.73;46.34
15487;BME280;7845;53.698;10.078;2023-05-03T11:52:46;102488.22;;;19.60;47.27
15487;BME280;7845;53.698;10.078;2023-05-03T11:55:11;102486.56;;;19.55;46.96
15487;BME280;7845;53.698;10.078;2023-05-03T11:57:37;102490.75;;;19.13;46.96
15487;BME280;7845;53.698;10.078;2023-05-03T12:00:14;102486.25;;;19.71;49.14
15487;BME280;7845;53.698;10.078;2023-05-03T12:02:48;102481.38;;;20.42;47.53
15487;BME280;7845;53.698;10.078;2023-05-03T12:05:15;102471.41;;;20.07;45.95
15487;BME280;7845;53.698;10.078;2023-05-03T12:07:43;102474.19;;;20.01;46.31
15487;BME280;7845;53.698;10.078;2023-05-03T12:10:15;102480.25;;;20.08;48.26
15487;BME280;7845;53.698;10.078;2023-05-03T12:15:26;102464.16;;;19.74;46.49
15487;BME280;7845;53.698;10.078;2023-05-03T12:17:57;102470.59;;;19.58;47.42
15487;BME280;7845;53.698;10.078;2023-05-03T12:20:24;102481.41;;;19.46;48.58
15487;BME280;7845;53.698;10.078;2023-05-03T12:22:56;102488.38;;;19.53;50.28
15487;BME280;7845;53.698;10.078;2023-05-03T12:25:22;102489.53;;;18.05;50.62
15487;BME280;7845;53.698;10.078;2023-05-03T12:27:47;102484.09;;;18.86;51.29
15487;BME280;7845;53.698;10.078;2023-05-03T12:30:13;102477.75;;;18.99;50.26
15487;BME280;7845;53.698;10.078;2023-05-03T12:32:39;102461.69;;;19.11;48.79
15487;BME280;7845;53.698;10.078;2023-05-03T12:35:05;102469.31;;;19.28;49.91
15487;BME280;7845;53.698;10.078;2023-05-03T12:37:33;102484.31;;;18.72;50.58
15487;BME280;7845;53.698;10.078;2023-05-03T12:40:00;102475.06;;;18.37;51.37
15487;BME280;7845;53.698;10.078;2023-05-03T12:42:27;102471.25;;;19.20;50.60
15487;BME280;7845;53.698;10.078;2023-05-03T12:45:00;102469.13;;;19.39;49.43
15487;BME280;7845;53.698;10.078;2023-05-03T12:47:26;102459.91;;;19.62;48.53
15487;BME280;7845;53.698;10.078;2023-05-03T12:49:52;102448.47;;;19.60;48.17
15487;BME280;7845;53.698;10.078;2023-05-03T12:52:17;102452.81;;;20.10;48.75
15487;BME280;7845;53.698;10.078;2023-05-03T12:54:43;102435.00;;;20.17;46.50
15487;BME280;7845;53.698;10.078;2023-05-03T12:57:10;102431.50;;;20.58;46.75
15487;BME280;7845;53.698;10.078;2023-05-03T12:59:37;102418.59;;;20.41;44.78
15487;BME280;7845;53.698;10.078;2023-05-03T13:02:06;102435.38;;;20.41;46.03
15487;BME280;7845;53.698;10.078;2023-05-03T13:04:35;102421.63;;;20.63;45.77
15487;BME280;7845;53.698;10.078;2023-05-03T13:07:00;102428.84;;;20.15;45.80
15487;BME280;7845;53.698;10.078;2023-05-03T13:09:27;102445.88;;;19.05;47.98
15487;BME280;7845;53.698;10.078;2023-05-03T13:11:52;102450.53;;;19.45;49.21
15487;BME280;7845;53.698;10.078;2023-05-03T13:14:19;102442.78;;;19.83;48.60